Flugplatz Berlin-Schönefeld International

Bericht für EDDB

vom 24.05. um 05:20 UTC

Wind 10 kt aus 70°

Sichtweite 10 km oder mehr

gute Sicht, keine Wolken < 5000 ft, keine CB, keine Wettererscheinungen (CAVOK)

Temperatur 15.0°C

Taupunkt 10.0°C

Luftfeuchtigkeit 72%

Luftdruck 1024 hPa

keine wesentliche Wetteränderung innerhalb den nächsten 2 Stunden zu erwarten

EDDB 240520Z 07010KT CAVOK 15/10 Q1024 NOSIG

Prognose für EDDB

vom 23.05. um 23:00 UTC

Zwischen 00:00 UTC und 00:00 UTC

Wind 10 kt aus 60°

Sichtweite 10 km oder mehr

keine signifikanten Wettererscheinungen

keine Wolken


Zwischen 09:00 UTC und 15:00 UTC zeitweise

Wind 15 kt aus 80° in Böen 25 kt

TAF EDDB 232300Z 2400/2424 06010KT CAVOK TEMPO 2409/2415 08015G25KT
Impressum